sensor_id;sensor_type;location;lat;lon;timestamp;pressure;altitude;pressure_sealevel;temperature;humidity
49759;BME280;70329;45.524;10.194;2024-03-25T00:02:10;99425.22;;;9.13;48.84
49759;BME280;70329;45.524;10.194;2024-03-25T00:04:41;99415.47;;;9.07;49.15
49759;BME280;70329;45.524;10.194;2024-03-25T00:07:09;99413.50;;;9.12;47.76
49759;BME280;70329;45.524;10.194;2024-03-25T00:09:36;99415.13;;;9.18;47.93
49759;BME280;70329;45.524;10.194;2024-03-25T00:12:03;99424.91;;;9.19;45.73
49759;BME280;70329;45.524;10.194;2024-03-25T00:14:31;99413.47;;;9.17;44.48
49759;BME280;70329;45.524;10.194;2024-03-25T00:16:58;99427.66;;;9.19;45.50
49759;BME280;70329;45.524;10.194;2024-03-25T00:19:25;99423.56;;;9.17;47.34
49759;BME280;70329;45.524;10.194;2024-03-25T00:21:55;99433.72;;;9.11;48.97
49759;BME280;70329;45.524;10.194;2024-03-25T00:24:22;99427.72;;;9.09;46.65
49759;BME280;70329;45.524;10.194;2024-03-25T00:26:50;99428.78;;;9.13;46.42
49759;BME280;70329;45.524;10.194;2024-03-25T00:29:16;99420.94;;;9.07;46.96
49759;BME280;70329;45.524;10.194;2024-03-25T00:31:44;99419.59;;;8.99;48.31
49759;BME280;70329;45.524;10.194;2024-03-25T00:34:11;99424.00;;;8.95;48.55
49759;BME280;70329;45.524;10.194;2024-03-25T00:36:39;99430.59;;;8.89;50.16
49759;BME280;70329;45.524;10.194;2024-03-25T00:39:07;99435.56;;;8.77;50.70
49759;BME280;70329;45.524;10.194;2024-03-25T00:41:36;99432.56;;;8.78;50.75
49759;BME280;70329;45.524;10.194;2024-03-25T00:44:02;99432.84;;;8.82;48.23
49759;BME280;70329;45.524;10.194;2024-03-25T00:46:30;99430.66;;;8.79;48.20
49759;BME280;70329;45.524;10.194;2024-03-25T00:48:56;99428.97;;;8.83;47.60
49759;BME280;70329;45.524;10.194;2024-03-25T00:51:24;99425.94;;;8.90;47.34
49759;BME280;70329;45.524;10.194;2024-03-25T00:53:50;99434.72;;;8.87;47.05
49759;BME280;70329;45.524;10.194;2024-03-25T00:56:20;99441.00;;;8.87;46.89
49759;BME280;70329;45.524;10.194;2024-03-25T00:58:47;99435.53;;;8.87;46.96
49759;BME280;70329;45.524;10.194;2024-03-25T01:01:14;99435.00;;;8.80;47.10
49759;BME280;70329;45.524;10.194;2024-03-25T01:03:41;99430.09;;;8.82;47.43
49759;BME280;70329;45.524;10.194;2024-03-25T01:06:10;99425.72;;;8.81;48.30
49759;BME280;70329;45.524;10.194;2024-03-25T01:08:35;99424.91;;;8.81;48.06
49759;BME280;70329;45.524;10.194;2024-03-25T01:11:02;99426.00;;;8.79;47.25
49759;BME280;70329;45.524;10.194;2024-03-25T01:13:29;99416.22;;;8.73;47.44
49759;BME280;70329;45.524;10.194;2024-03-25T01:15:57;99419.75;;;8.74;47.71
49759;BME280;70329;45.524;10.194;2024-03-25T01:18:22;99415.44;;;8.68;47.69
49759;BME280;70329;45.524;10.194;2024-03-25T01:20:50;99420.66;;;8.59;48.02
49759;BME280;70329;45.524;10.194;2024-03-25T01:23:17;99415.19;;;8.64;46.69
49759;BME280;70329;45.524;10.194;2024-03-25T01:25:45;99416.84;;;8.55;46.64
49759;BME280;70329;45.524;10.194;2024-03-25T01:28:12;99421.19;;;8.61;46.28
49759;BME280;70329;45.524;10.194;2024-03-25T01:30:41;99419.28;;;8.62;46.13
49759;BME280;70329;45.524;10.194;2024-03-25T01:33:08;99422.84;;;8.62;46.43
49759;BME280;70329;45.524;10.194;2024-03-25T01:35:36;99432.09;;;8.61;45.55
49759;BME280;70329;45.524;10.194;2024-03-25T01:38:02;99431.03;;;8.62;44.78
49759;BME280;70329;45.524;10.194;2024-03-25T01:40:30;99421.78;;;8.53;45.60
49759;BME280;70329;45.524;10.194;2024-03-25T01:42:57;99431.59;;;8.54;44.92
49759;BME280;70329;45.524;10.194;2024-03-25T01:45:25;99428.63;;;8.51;45.60
49759;BME280;70329;45.524;10.194;2024-03-25T01:47:56;99430.22;;;8.52;45.57
49759;BME280;70329;45.524;10.194;2024-03-25T01:50:25;99428.34;;;8.47;45.54
49759;BME280;70329;45.524;10.194;2024-03-25T01:52:53;99424.28;;;8.45;45.87
49759;BME280;70329;45.524;10.194;2024-03-25T01:55:22;99427.53;;;8.47;46.09
49759;BME280;70329;45.524;10.194;2024-03-25T01:57:51;99423.50;;;8.34;46.81
49759;BME280;70329;45.524;10.194;2024-03-25T02:00:19;99430.31;;;8.37;46.99
49759;BME280;70329;45.524;10.194;2024-03-25T02:02:47;99430.31;;;8.37;46.67
49759;BME280;70329;45.524;10.194;2024-03-25T02:05:17;99433.31;;;8.30;47.58
49759;BME280;70329;45.524;10.194;2024-03-25T02:07:44;99435.78;;;8.32;47.34
49759;BME280;70329;45.524;10.194;2024-03-25T02:10:12;99416.13;;;8.30;46.59
49759;BME280;70329;45.524;10.194;2024-03-25T02:12:41;99420.78;;;8.29;46.20
49759;BME280;70329;45.524;10.194;2024-03-25T02:15:10;99414.53;;;8.29;46.66
49759;BME280;70329;45.524;10.194;2024-03-25T02:17:37;99414.22;;;8.35;45.71
49759;BME280;70329;45.524;10.194;2024-03-25T02:20:06;99418.34;;;8.28;46.33
49759;BME280;70329;45.524;10.194;2024-03-25T02:22:35;99422.41;;;8.25;46.10
49759;BME280;70329;45.524;10.194;2024-03-25T02:25:06;99418.31;;;8.23;46.26
49759;BME280;70329;45.524;10.194;2024-03-25T02:27:35;99414.28;;;8.15;46.53
49759;BME280;70329;45.524;10.194;2024-03-25T02:30:04;99418.94;;;8.09;46.88
49759;BME280;70329;45.524;10.194;2024-03-25T02:32:32;99422.75;;;8.08;46.94
49759;BME280;70329;45.524;10.194;2024-03-25T02:35:01;99418.38;;;8.07;46.42
49759;BME280;70329;45.524;10.194;2024-03-25T02:37:29;99416.47;;;8.08;46.53
49759;BME280;70329;45.524;10.194;2024-03-25T02:39:59;99419.75;;;8.05;45.28
49759;BME280;70329;45.524;10.194;2024-03-25T02:42:26;99416.50;;;7.98;46.00
49759;BME280;70329;45.524;10.194;2024-03-25T02:44:55;99419.22;;;7.93;46.41
49759;BME280;70329;45.524;10.194;2024-03-25T02:47:20;99415.94;;;7.96;48.24
49759;BME280;70329;45.524;10.194;2024-03-25T02:49:48;99424.69;;;7.83;48.12
49759;BME280;70329;45.524;10.194;2024-03-25T02:52:14;99416.53;;;7.78;48.53
49759;BME280;70329;45.524;10.194;2024-03-25T02:54:41;99415.16;;;7.80;49.11
49759;BME280;70329;45.524;10.194;2024-03-25T02:57:06;99422.28;;;7.81;49.27
49759;BME280;70329;45.524;10.194;2024-03-25T02:59:34;99420.63;;;7.80;48.87
49759;BME280;70329;45.524;10.194;2024-03-25T03:02:03;99422.81;;;7.83;49.13
49759;BME280;70329;45.524;10.194;2024-03-25T03:04:31;99423.34;;;7.85;49.51
49759;BME280;70329;45.524;10.194;2024-03-25T03:06:58;99423.88;;;7.82;48.69
49759;BME280;70329;45.524;10.194;2024-03-25T03:09:25;99423.63;;;7.84;48.24
49759;BME280;70329;45.524;10.194;2024-03-25T03:11:51;99424.44;;;7.79;48.25
49759;BME280;70329;45.524;10.194;2024-03-25T03:14:18;99431.53;;;7.75;48.33
49759;BME280;70329;45.524;10.194;2024-03-25T03:16:45;99424.47;;;7.69;47.70
49759;BME280;70329;45.524;10.194;2024-03-25T03:19:14;99428.53;;;7.72;47.42
49759;BME280;70329;45.524;10.194;2024-03-25T03:21:41;99424.72;;;7.73;46.94
49759;BME280;70329;45.524;10.194;2024-03-25T03:24:09;99424.72;;;7.73;46.65
49759;BME280;70329;45.524;10.194;2024-03-25T03:26:36;99416.00;;;7.76;45.97
49759;BME280;70329;45.524;10.194;2024-03-25T03:29:03;99429.34;;;7.77;45.87
49759;BME280;70329;45.524;10.194;2024-03-25T03:31:30;99434.81;;;7.72;46.22
49759;BME280;70329;45.524;10.194;2024-03-25T03:33:58;99428.53;;;7.77;46.95
49759;BME280;70329;45.524;10.194;2024-03-25T03:36:26;99433.44;;;7.75;47.57
49759;BME280;70329;45.524;10.194;2024-03-25T03:38:54;99438.34;;;7.62;48.85
49759;BME280;70329;45.524;10.194;2024-03-25T03:41:21;99444.63;;;7.58;49.05
49759;BME280;70329;45.524;10.194;2024-03-25T03:43:49;99440.00;;;7.53;49.57
49759;BME280;70329;45.524;10.194;2024-03-25T03:46:16;99440.81;;;7.59;48.81
49759;BME280;70329;45.524;10.194;2024-03-25T03:48:43;99441.09;;;7.52;48.30
49759;BME280;70329;45.524;10.194;2024-03-25T03:51:10;99434.56;;;7.53;47.81
49759;BME280;70329;45.524;10.194;2024-03-25T03:53:40;99433.19;;;7.61;47.92
49759;BME280;70329;45.524;10.194;2024-03-25T03:56:07;99435.09;;;7.55;47.54
49759;BME280;70329;45.524;10.194;2024-03-25T03:58:34;99424.19;;;7.55;47.56
49759;BME280;70329;45.524;10.194;2024-03-25T04:01:01;99430.47;;;7.56;48.16
49759;BME280;70329;45.524;10.194;2024-03-25T04:03:30;99420.09;;;7.63;48.20
49759;BME280;70329;45.524;10.194;2024-03-25T04:05:57;99420.38;;;7.51;49.34
49759;BME280;70329;45.524;10.194;2024-03-25T04:08:25;99413.84;;;7.47;50.40
49759;BME280;70329;45.524;10.194;2024-03-25T04:10:53;99411.69;;;7.39;50.19
49759;BME280;70329;45.524;10.194;2024-03-25T04:13:21;99413.59;;;7.34;50.57
49759;BME280;70329;45.524;10.194;2024-03-25T04:15:47;99418.22;;;7.33;50.68
49759;BME280;70329;45.524;10.194;2024-03-25T04:18:13;99413.56;;;7.29;50.19
49759;BME280;70329;45.524;10.194;2024-03-25T04:20:40;99410.59;;;7.35;48.45
49759;BME280;70329;45.524;10.194;2024-03-25T04:23:08;99415.47;;;7.43;47.36
49759;BME280;70329;45.524;10.194;2024-03-25T04:25:35;99413.03;;;7.42;47.81
49759;BME280;70329;45.524;10.194;2024-03-25T04:28:05;99415.22;;;7.45;47.73
49759;BME280;70329;45.524;10.194;2024-03-25T04:30:32;99415.22;;;7.45;47.93
49759;BME280;70329;45.524;10.194;2024-03-25T04:33:00;99410.31;;;7.47;48.27
49759;BME280;70329;45.524;10.194;2024-03-25T04:35:27;99406.75;;;7.51;48.48
49759;BME280;70329;45.524;10.194;2024-03-25T04:37:55;99411.69;;;7.44;48.62
49759;BME280;70329;45.524;10.194;2024-03-25T04:40:22;99412.22;;;7.46;48.07
49759;BME280;70329;45.524;10.194;2024-03-25T04:42:49;99410.31;;;7.37;48.58
49759;BME280;70329;45.524;10.194;2024-03-25T04:45:18;99407.84;;;7.45;47.38
49759;BME280;70329;45.524;10.194;2024-03-25T04:47:45;99410.31;;;7.42;47.37
49759;BME280;70329;45.524;10.194;2024-03-25T04:50:11;99412.50;;;7.50;47.09
49759;BME280;70329;45.524;10.194;2024-03-25T04:52:38;99408.09;;;7.54;46.28
49759;BME280;70329;45.524;10.194;2024-03-25T04:55:05;99406.47;;;7.58;46.17
49759;BME280;70329;45.524;10.194;2024-03-25T04:57:32;99413.03;;;7.62;46.50
49759;BME280;70329;45.524;10.194;2024-03-25T04:59:59;99408.38;;;7.57;47.18
49759;BME280;70329;45.524;10.194;2024-03-25T05:02:27;99404.03;;;7.61;47.23
49759;BME280;70329;45.524;10.194;2024-03-25T05:04:54;99408.13;;;7.64;47.03
49759;BME280;70329;45.524;10.194;2024-03-25T05:07:21;99406.78;;;7.56;47.41
49759;BME280;70329;45.524;10.194;2024-03-25T05:09:47;99405.41;;;7.59;45.37
49759;BME280;70329;45.524;10.194;2024-03-25T05:12:13;99410.84;;;7.64;44.36
49759;BME280;70329;45.524;10.194;2024-03-25T05:14:40;99411.13;;;7.68;42.77
49759;BME280;70329;45.524;10.194;2024-03-25T05:17:07;99408.13;;;7.64;42.50
49759;BME280;70329;45.524;10.194;2024-03-25T05:19:35;99408.91;;;7.59;42.65
49759;BME280;70329;45.524;10.194;2024-03-25T05:22:02;99405.13;;;7.60;41.66
49759;BME280;70329;45.524;10.194;2024-03-25T05:24:29;99414.66;;;7.63;42.13
49759;BME280;70329;45.524;10.194;2024-03-25T05:26:56;99419.03;;;7.64;41.61
49759;BME280;70329;45.524;10.194;2024-03-25T05:29:23;99419.56;;;7.66;41.97
49759;BME280;70329;45.524;10.194;2024-03-25T05:31:56;99428.28;;;7.73;41.35
49759;BME280;70329;45.524;10.194;2024-03-25T05:34:23;99417.91;;;7.80;42.29
49759;BME280;70329;45.524;10.194;2024-03-25T05:36:52;99426.59;;;7.87;42.56
49759;BME280;70329;45.524;10.194;2024-03-25T05:39:19;99432.88;;;7.88;42.76
49759;BME280;70329;45.524;10.194;2024-03-25T05:41:47;99434.22;;;7.90;43.81
49759;BME280;70329;45.524;10.194;2024-03-25T05:44:14;99438.03;;;7.94;44.18
49759;BME280;70329;45.524;10.194;2024-03-25T05:46:40;99436.41;;;7.93;44.83
49759;BME280;70329;45.524;10.194;2024-03-25T05:49:06;99438.31;;;7.93;45.95
49759;BME280;70329;45.524;10.194;2024-03-25T05:51:32;99441.88;;;7.88;46.11
49759;BME280;70329;45.524;10.194;2024-03-25T05:54:01;99433.13;;;7.91;46.39
49759;BME280;70329;45.524;10.194;2024-03-25T05:56:28;99439.13;;;7.88;47.27
49759;BME280;70329;45.524;10.194;2024-03-25T05:58:53;99447.88;;;7.85;46.39
49759;BME280;70329;45.524;10.194;2024-03-25T06:01:20;99452.50;;;7.80;51.14
49759;BME280;70329;45.524;10.194;2024-03-25T06:03:47;99450.59;;;7.80;47.35
49759;BME280;70329;45.524;10.194;2024-03-25T06:06:14;99441.91;;;7.78;46.77
49759;BME280;70329;45.524;10.194;2024-03-25T06:08:40;99449.50;;;7.86;45.43
49759;BME280;70329;45.524;10.194;2024-03-25T06:11:09;99448.41;;;7.87;45.64
49759;BME280;70329;45.524;10.194;2024-03-25T06:13:34;99450.31;;;7.97;45.47
49759;BME280;70329;45.524;10.194;2024-03-25T06:16:00;99463.91;;;8.02;46.02
49759;BME280;70329;45.524;10.194;2024-03-25T06:18:27;99462.03;;;7.92;45.91
49759;BME280;70329;45.524;10.194;2024-03-25T06:20:55;99461.50;;;7.85;45.38
49759;BME280;70329;45.524;10.194;2024-03-25T06:23:23;99468.59;;;7.86;46.49
49759;BME280;70329;45.524;10.194;2024-03-25T06:25:51;99472.41;;;7.85;46.44
49759;BME280;70329;45.524;10.194;2024-03-25T06:28:19;99482.75;;;7.93;47.52
49759;BME280;70329;45.524;10.194;2024-03-25T06:30:47;99489.56;;;7.96;47.70
49759;BME280;70329;45.524;10.194;2024-03-25T06:33:37;99484.94;;;8.06;48.33
49759;BME280;70329;45.524;10.194;2024-03-25T06:36:22;99478.91;;;8.14;46.99
49759;BME280;70329;45.524;10.194;2024-03-25T06:38:48;99485.41;;;8.23;47.59
49759;BME280;70329;45.524;10.194;2024-03-25T06:41:15;99481.63;;;8.35;47.12
49759;BME280;70329;45.524;10.194;2024-03-25T06:43:43;99476.38;;;8.43;45.57
49759;BME280;70329;45.524;10.194;2024-03-25T06:46:10;99475.31;;;8.39;46.38
49759;BME280;70329;45.524;10.194;2024-03-25T06:48:36;99485.69;;;8.42;47.34
49759;BME280;70329;45.524;10.194;2024-03-25T06:51:03;99496.84;;;8.51;52.95
49759;BME280;70329;45.524;10.194;2024-03-25T06:53:30;99491.09;;;8.52;55.68
49759;BME280;70329;45.524;10.194;2024-03-25T06:55:59;99497.91;;;8.55;57.82
49759;BME280;70329;45.524;10.194;2024-03-25T06:58:27;99502.28;;;8.56;59.17
49759;BME280;70329;45.524;10.194;2024-03-25T07:00:56;99506.06;;;8.60;59.86
49759;BME280;70329;45.524;10.194;2024-03-25T07:03:23;99517.78;;;8.65;59.70
49759;BME280;70329;45.524;10.194;2024-03-25T07:05:51;99518.88;;;8.69;60.09
49759;BME280;70329;45.524;10.194;2024-03-25T07:08:18;99518.38;;;8.62;59.88
49759;BME280;70329;45.524;10.194;2024-03-25T07:10:45;99519.19;;;8.58;60.82
49759;BME280;70329;45.524;10.194;2024-03-25T07:13:11;99521.38;;;8.56;64.51
49759;BME280;70329;45.524;10.194;2024-03-25T07:15:39;99524.91;;;8.61;66.37
49759;BME280;70329;45.524;10.194;2024-03-25T07:18:08;99520.78;;;8.69;74.54
49759;BME280;70329;45.524;10.194;2024-03-25T07:20:35;99522.94;;;8.77;78.35
49759;BME280;70329;45.524;10.194;2024-03-25T07:23:03;99530.84;;;8.78;77.03
49759;BME280;70329;45.524;10.194;2024-03-25T07:25:29;99545.28;;;8.89;73.92
49759;BME280;70329;45.524;10.194;2024-03-25T07:27:56;99546.03;;;9.00;73.12
49759;BME280;70329;45.524;10.194;2024-03-25T07:30:24;99538.91;;;9.09;70.05
49759;BME280;70329;45.524;10.194;2024-03-25T07:32:51;99543.81;;;9.12;66.87
49759;BME280;70329;45.524;10.194;2024-03-25T07:35:18;99546.78;;;9.20;65.29
49759;BME280;70329;45.524;10.194;2024-03-25T07:37:45;99545.31;;;9.33;67.71
49759;BME280;70329;45.524;10.194;2024-03-25T07:40:11;99546.84;;;9.49;67.76
49759;BME280;70329;45.524;10.194;2024-03-25T07:42:39;99547.06;;;9.63;68.21
49759;BME280;70329;45.524;10.194;2024-03-25T07:45:07;99543.56;;;9.52;65.85
49759;BME280;70329;45.524;10.194;2024-03-25T07:47:33;99547.84;;;9.68;63.78
49759;BME280;70329;45.524;10.194;2024-03-25T07:50:00;99544.72;;;9.80;61.86
49759;BME280;70329;45.524;10.194;2024-03-25T07:52:29;99559.94;;;9.96;59.87
49759;BME280;70329;45.524;10.194;2024-03-25T07:54:56;99565.00;;;10.13;59.19
49759;BME280;70329;45.524;10.194;2024-03-25T07:57:23;99567.31;;;10.29;58.79
49759;BME280;70329;45.524;10.194;2024-03-25T07:59:50;99569.34;;;10.14;60.10
49759;BME280;70329;45.524;10.194;2024-03-25T08:02:17;99566.78;;;10.27;57.90
49759;BME280;70329;45.524;10.194;2024-03-25T08:04:43;99574.31;;;10.40;55.63
49759;BME280;70329;45.524;10.194;2024-03-25T08:07:10;99574.72;;;10.58;56.51
49759;BME280;70329;45.524;10.194;2024-03-25T08:09:38;99574.06;;;10.66;55.03
49759;BME280;70329;45.524;10.194;2024-03-25T08:12:05;99565.16;;;10.79;54.13
49759;BME280;70329;45.524;10.194;2024-03-25T08:14:32;99571.72;;;11.01;53.67
49759;BME280;70329;45.524;10.194;2024-03-25T08:16:59;99571.75;;;11.20;52.16
49759;BME280;70329;45.524;10.194;2024-03-25T08:19:24;99581.94;;;11.38;52.25
49759;BME280;70329;45.524;10.194;2024-03-25T08:21:51;99569.13;;;11.52;52.54
49759;BME280;70329;45.524;10.194;2024-03-25T08:24:18;99576.94;;;11.64;51.43
49759;BME280;70329;45.524;10.194;2024-03-25T08:26:46;99573.22;;;11.74;51.13
49759;BME280;70329;45.524;10.194;2024-03-25T08:29:13;99576.19;;;11.77;49.72
49759;BME280;70329;45.524;10.194;2024-03-25T08:31:39;99564.09;;;11.78;49.20
49759;BME280;70329;45.524;10.194;2024-03-25T08:34:05;99563.44;;;11.86;48.96
49759;BME280;70329;45.524;10.194;2024-03-25T08:36:32;99561.50;;;11.87;48.73
49759;BME280;70329;45.524;10.194;2024-03-25T08:38:59;99556.88;;;12.01;48.79
49759;BME280;70329;45.524;10.194;2024-03-25T08:41:26;99561.03;;;12.17;49.80
49759;BME280;70329;45.524;10.194;2024-03-25T08:43:59;99559.16;;;12.45;50.08
49759;BME280;70329;45.524;10.194;2024-03-25T08:46:24;99570.34;;;12.62;49.90
49759;BME280;70329;45.524;10.194;2024-03-25T08:48:51;99569.78;;;12.78;49.32
49759;BME280;70329;45.524;10.194;2024-03-25T08:51:18;99565.50;;;12.86;49.20
49759;BME280;70329;45.524;10.194;2024-03-25T08:53:46;99563.69;;;12.95;49.21
49759;BME280;70329;45.524;10.194;2024-03-25T08:56:13;99560.63;;;13.10;49.34
49759;BME280;70329;45.524;10.194;2024-03-25T08:58:38;99556.75;;;13.25;49.36
49759;BME280;70329;45.524;10.194;2024-03-25T09:01:06;99555.09;;;13.37;47.83
49759;BME280;70329;45.524;10.194;2024-03-25T09:03:33;99548.25;;;13.35;46.40
49759;BME280;70329;45.524;10.194;2024-03-25T09:06:00;99545.03;;;13.33;47.69
49759;BME280;70329;45.524;10.194;2024-03-25T09:08:27;99543.75;;;13.53;48.22
49759;BME280;70329;45.524;10.194;2024-03-25T09:10:54;99541.03;;;13.75;48.04
49759;BME280;70329;45.524;10.194;2024-03-25T09:13:30;99546.06;;;13.95;47.19
49759;BME280;70329;45.524;10.194;2024-03-25T09:15:57;99547.44;;;14.06;45.18
49759;BME280;70329;45.524;10.194;2024-03-25T09:18:26;99537.59;;;14.14;44.62
49759;BME280;70329;45.524;10.194;2024-03-25T09:20:52;99535.53;;;14.19;44.29
49759;BME280;70329;45.524;10.194;2024-03-25T09:23:19;99530.88;;;14.28;44.16
49759;BME280;70329;45.524;10.194;2024-03-25T09:25:53;99531.38;;;14.30;45.74
49759;BME280;70329;45.524;10.194;2024-03-25T09:28:20;99526.81;;;14.48;46.41
49759;BME280;70329;45.524;10.194;2024-03-25T09:30:48;99518.09;;;14.63;42.43
49759;BME280;70329;45.524;10.194;2024-03-25T09:33:15;99524.28;;;14.69;42.13
49759;BME280;70329;45.524;10.194;2024-03-25T09:35:43;99515.28;;;14.77;41.77
49759;BME280;70329;45.524;10.194;2024-03-25T09:38:10;99518.03;;;14.77;41.15
49759;BME280;70329;45.524;10.194;2024-03-25T09:40:40;99515.28;;;14.85;40.56
49759;BME280;70329;45.524;10.194;2024-03-25T09:43:12;99513.50;;;14.89;39.09
49759;BME280;70329;45.524;10.194;2024-03-25T09:45:40;99520.03;;;15.02;38.83
49759;BME280;70329;45.524;10.194;2024-03-25T09:48:07;99510.66;;;15.11;39.00
49759;BME280;70329;45.524;10.194;2024-03-25T09:50:35;99509.56;;;15.21;39.19
49759;BME280;70329;45.524;10.194;2024-03-25T09:53:04;99505.16;;;15.29;38.87
49759;BME280;70329;45.524;10.194;2024-03-25T09:55:31;99505.50;;;15.36;39.12
49759;BME280;70329;45.524;10.194;2024-03-25T09:57:59;99501.00;;;15.48;38.94
49759;BME280;70329;45.524;10.194;2024-03-25T10:00:26;99498.91;;;15.54;40.17
49759;BME280;70329;45.524;10.194;2024-03-25T10:02:53;99500.66;;;15.76;39.91
49759;BME280;70329;45.524;10.194;2024-03-25T10:05:20;99496.44;;;15.87;38.65
49759;BME280;70329;45.524;10.194;2024-03-25T10:07:46;99490.09;;;15.86;38.29
49759;BME280;70329;45.524;10.194;2024-03-25T10:10:19;99483.28;;;15.92;38.17
49759;BME280;70329;45.524;10.194;2024-03-25T10:12:45;99479.69;;;15.92;37.51
49759;BME280;70329;45.524;10.194;2024-03-25T10:15:15;99480.97;;;16.03;36.71
49759;BME280;70329;45.524;10.194;2024-03-25T10:17:42;99471.34;;;16.17;35.68
49759;BME280;70329;45.524;10.194;2024-03-25T10:20:13;99465.34;;;16.24;35.74
49759;BME280;70329;45.524;10.194;2024-03-25T10:22:44;99467.38;;;16.44;33.18
49759;BME280;70329;45.524;10.194;2024-03-25T10:25:27;99472.53;;;16.63;35.91
49759;BME280;70329;45.524;10.194;2024-03-25T10:27:59;99471.69;;;16.71;36.52
49759;BME280;70329;45.524;10.194;2024-03-25T10:30:26;99470.88;;;16.70;34.86
49759;BME280;70329;45.524;10.194;2024-03-25T10:32:59;99468.16;;;16.91;34.89
49759;BME280;70329;45.524;10.194;2024-03-25T10:35:27;99452.59;;;17.07;33.67
49759;BME280;70329;45.524;10.194;2024-03-25T10:37:55;99444.19;;;17.24;33.38
49759;BME280;70329;45.524;10.194;2024-03-25T10:40:28;99447.78;;;17.25;33.95
49759;BME280;70329;45.524;10.194;2024-03-25T10:43:01;99441.97;;;17.38;34.07
49759;BME280;70329;45.524;10.194;2024-03-25T10:45:30;99443.56;;;17.39;35.11
49759;BME280;70329;45.524;10.194;2024-03-25T10:47:57;99441.97;;;17.38;34.30
49759;BME280;70329;45.524;10.194;2024-03-25T10:50:29;99434.25;;;17.44;34.14
49759;BME280;70329;45.524;10.194;2024-03-25T10:52:57;99435.00;;;17.53;34.14
49759;BME280;70329;45.524;10.194;2024-03-25T10:55:24;99425.88;;;17.53;32.62
49759;BME280;70329;45.524;10.194;2024-03-25T10:57:54;99429.31;;;17.70;32.85
49759;BME280;70329;45.524;10.194;2024-03-25T11:00:22;99430.25;;;17.74;32.40
49759;BME280;70329;45.524;10.194;2024-03-25T11:02:50;99422.50;;;17.68;32.54
49759;BME280;70329;45.524;10.194;2024-03-25T11:05:17;99410.34;;;17.81;32.44
49759;BME280;70329;45.524;10.194;2024-03-25T11:07:44;99417.53;;;17.94;31.85
49759;BME280;70329;45.524;10.194;2024-03-25T11:10:12;99407.94;;;18.03;31.45
49759;BME280;70329;45.524;10.194;2024-03-25T11:12:41;99416.66;;;18.14;31.69
49759;BME280;70329;45.524;10.194;2024-03-25T11:15:11;99406.38;;;18.27;31.59
49759;BME280;70329;45.524;10.194;2024-03-25T11:17:48;99409.38;;;18.22;30.80
49759;BME280;70329;45.524;10.194;2024-03-25T11:20:16;99407.78;;;18.33;28.97
49759;BME280;70329;45.524;10.194;2024-03-25T11:22:50;99397.03;;;18.43;28.86
49759;BME280;70329;45.524;10.194;2024-03-25T11:25:17;99400.25;;;18.21;30.70
49759;BME280;70329;45.524;10.194;2024-03-25T11:27:45;99395.88;;;18.44;30.96
49759;BME280;70329;45.524;10.194;2024-03-25T11:30:14;99392.19;;;18.40;28.56
49759;BME280;70329;45.524;10.194;2024-03-25T11:32:51;99390.34;;;18.56;29.89
49759;BME280;70329;45.524;10.194;2024-03-25T11:35:19;99388.75;;;18.68;30.38
49759;BME280;70329;45.524;10.194;2024-03-25T11:37:45;99388.31;;;18.53;29.82
49759;BME280;70329;45.524;10.194;2024-03-25T11:40:13;99384.75;;;18.20;27.67
49759;BME280;70329;45.524;10.194;2024-03-25T11:42:40;99383.53;;;18.54;28.46
49759;BME280;70329;45.524;10.194;2024-03-25T11:45:15;99378.31;;;18.77;28.38
49759;BME280;70329;45.524;10.194;2024-03-25T11:47:43;99373.25;;;18.79;30.10
49759;BME280;70329;45.524;10.194;2024-03-25T11:50:12;99375.78;;;18.72;28.72
49759;BME280;70329;45.524;10.194;2024-03-25T11:52:39;99376.94;;;18.71;28.16
49759;BME280;70329;45.524;10.194;2024-03-25T11:55:07;99376.81;;;18.91;29.28
49759;BME280;70329;45.524;10.194;2024-03-25T11:57:35;99368.25;;;18.96;30.29
49759;BME280;70329;45.524;10.194;2024-03-25T12:00:02;99365.63;;;18.76;28.63
49759;BME280;70329;45.524;10.194;2024-03-25T12:02:31;99366.78;;;18.75;27.78
49759;BME280;70329;45.524;10.194;2024-03-25T12:04:59;99365.75;;;18.67;28.53
49759;BME280;70329;45.524;10.194;2024-03-25T12:07:26;99355.47;;;18.68;27.62
49759;BME280;70329;45.524;10.194;2024-03-25T12:09:53;99359.97;;;18.84;27.93
49759;BME280;70329;45.524;10.194;2024-03-25T12:12:37;99352.47;;;18.60;28.13
49759;BME280;70329;45.524;10.194;2024-03-25T12:15:05;99340.88;;;18.83;28.90
49759;BME280;70329;45.524;10.194;2024-03-25T12:17:34;99343.72;;;18.98;28.63
49759;BME280;70329;45.524;10.194;2024-03-25T12:20:05;99341.50;;;19.04;29.20
49759;BME280;70329;45.524;10.194;2024-03-25T12:22:34;99344.38;;;19.07;28.84
49759;BME280;70329;45.524;10.194;2024-03-25T12:25:01;99339.19;;;19.06;27.72
49759;BME280;70329;45.524;10.194;2024-03-25T12:27:30;99332.44;;;19.19;29.44
49759;BME280;70329;45.524;10.194;2024-03-25T12:30:00;99331.00;;;19.09;29.29
49759;BME280;70329;45.524;10.194;2024-03-25T12:32:39;99330.34;;;19.28;29.05
49759;BME280;70329;45.524;10.194;2024-03-25T12:35:10;99325.56;;;19.41;27.00
49759;BME280;70329;45.524;10.194;2024-03-25T12:37:38;99323.13;;;19.11;27.58
49759;BME280;70329;45.524;10.194;2024-03-25T12:40:06;99313.94;;;19.23;27.65
49759;BME280;70329;45.524;10.194;2024-03-25T12:42:34;99321.00;;;19.21;27.04
49759;BME280;70329;45.524;10.194;2024-03-25T12:45:01;99320.59;;;19.34;27.72
49759;BME280;70329;45.524;10.194;2024-03-25T12:47:29;99310.44;;;19.26;28.04
49759;BME280;70329;45.524;10.194;2024-03-25T12:49:58;99305.69;;;19.54;27.89
49759;BME280;70329;45.524;10.194;2024-03-25T12:52:25;99303.88;;;19.46;27.66
49759;BME280;70329;45.524;10.194;2024-03-25T12:54:53;99300.78;;;18.80;28.63
49759;BME280;70329;45.524;10.194;2024-03-25T12:57:20;99310.59;;;19.17;28.84
49759;BME280;70329;45.524;10.194;2024-03-25T12:59:47;99299.78;;;19.28;27.97